Time;durP1;ratioP1;P1;durP2;ratioP2;P2;SDS_P1;SDS_P2;PMS_P1;PMS_P2;Temp;Humidity;BMP_temperature;BMP_pressure;BME280_temperature;BME280_humidity;BME280_pressure;Samples;Min_cycle;Max_cycle;Signal;HPM_P1;HPM_P2
2022/07/31 00:00:39;;;;;;;;;;;;;;;;;;5096301;28;19966;-86
2022/07/31 00:03:04;;;;;;;;;;;;;;;;;;5111335;28;19954;-88
2022/07/31 00:05:30;;;;;;;;;;;;;;;;;;5095288;28;20346;-87
2022/07/31 00:07:55;;;;;;;;;;;;;;;;;;5095487;28;19965;-87
2022/07/31 00:10:20;;;;;;;;;;;;;;;;;;5111250;28;19916;-87
2022/07/31 00:12:46;;;;;;;;;;;;;;;;;;5111001;28;20368;-88
2022/07/31 00:15:11;;;;;;;;;;;;;;;;;;5093615;28;20369;-87
2022/07/31 00:17:40;;;;;;;;;;;;;;;;;;5099532;28;20010;-86
2022/07/31 00:20:05;;;;;;;;;;;;;;;;;;5098217;28;20016;-86
2022/07/31 00:22:31;;;;;;;;;;;;;;;;;;5093692;28;19951;-88
2022/07/31 00:24:56;;;;;;;;;;;;;;;;;;5094872;28;19916;-86
2022/07/31 00:27:22;;;;;;;;;;;;;;;;;;5093499;28;20317;-87
2022/07/31 00:29:48;;;;;;;;;;;;;;;;;;5110867;28;19973;-86
2022/07/31 00:32:13;;;;;;;;;;;;;;;;;;5110597;28;19916;-86
2022/07/31 00:34:38;;;;;;;;;;;;;;;;;;5109818;28;19989;-86
2022/07/31 00:37:03;;;;;;;;;;;;;;;;;;5106908;28;19916;-87
2022/07/31 00:39:29;;;;;;;;;;;;;;;;;;5111954;28;19916;-86
2022/07/31 00:41:55;;;;;;;;;;;;;;;;;;5095025;28;20379;-86
2022/07/31 00:44:20;;;;;;;;;;;;;;;;;;5095812;28;19920;-89
2022/07/31 00:46:46;;;;;;;;;;;;;;;;;;5093407;28;20009;-88
2022/07/31 00:49:11;;;;;;;;;;;;;;;;;;5095144;28;19995;-87
2022/07/31 00:51:37;;;;;;;;;;;;;;;;;;5110621;28;20288;-86
2022/07/31 00:54:02;;;;;;;;;;;;;;;;;;5094949;28;20306;-87
2022/07/31 00:56:27;;;;;;;;;;;;;;;;;;5099649;28;19922;-86
2022/07/31 00:58:56;;;;;;;;;;;;;;;;;;5100155;28;20291;-87
2022/07/31 01:01:21;;;;;;;;;;;;;;;;;;5111164;28;19916;-86
2022/07/31 01:03:47;;;;;;;;;;;;;;;;;;5093519;28;19916;-85
2022/07/31 01:06:13;;;;;;;;;;;;;;;;;;5094732;28;19916;-85
2022/07/31 01:08:38;;;;;;;;;;;;;;;;;;5093570;28;19952;-85
2022/07/31 01:11:14;;;;;;;;;;;;;;;;;;5110237;28;20289;-85
2022/07/31 01:13:43;;;;;;;;;;;;;;;;;;5110128;28;20006;-85
2022/07/31 01:16:08;;;;;;;;;;;;;;;;;;5110768;28;20333;-84
2022/07/31 01:18:34;;;;;;;;;;;;;;;;;;5100289;28;19924;-85
2022/07/31 01:21:00;;;;;;;;;;;;;;;;;;5112515;28;19920;-86
2022/07/31 01:23:25;;;;;;;;;;;;;;;;;;5093157;28;19916;-85
2022/07/31 01:25:57;;;;;;;;;;;;;;;;;;5094576;28;20299;-85
2022/07/31 01:28:42;;;;;;;;;;;;;;;;;;5094399;28;20333;-86
2022/07/31 01:31:15;;;;;;;;;;;;;;;;;;5093927;28;19916;-85
2022/07/31 01:33:51;;;;;;;;;;;;;;;;;;5110250;28;19912;-86
2022/07/31 01:36:18;;;;;;;;;;;;;;;;;;5093266;28;19916;-88
2022/07/31 01:38:44;;;;;;;;;;;;;;;;;;5115402;28;20019;-87
2022/07/31 01:41:11;;;;;;;;;;;;;;;;;;5100846;28;19923;-88
2022/07/31 01:43:38;;;;;;;;;;;;;;;;;;5109702;28;19959;-86
2022/07/31 01:46:03;;;;;;;;;;;;;;;;;;5094307;28;20371;-86
2022/07/31 01:48:30;;;;;;;;;;;;;;;;;;5097791;28;19920;-86
2022/07/31 01:50:56;;;;;;;;;;;;;;;;;;5113523;28;20250;-86
2022/07/31 01:53:21;;;;;;;;;;;;;;;;;;5113263;28;19939;-86
2022/07/31 01:55:47;;;;;;;;;;;;;;;;;;5113745;28;19916;-86
2022/07/31 01:58:13;;;;;;;;;;;;;;;;;;5113816;28;19927;-87
2022/07/31 02:00:38;;;;;;;;;;;;;;;;;;5108584;28;19908;-87
2022/07/31 02:03:03;;;;;;;;;;;;;;;;;;5123294;28;20352;-88
2022/07/31 02:05:29;;;;;;;;;;;;;;;;;;5096835;28;19922;-88
2022/07/31 02:07:54;;;;;;;;;;;;;;;;;;5097167;28;19916;-87
2022/07/31 02:10:20;;;;;;;;;;;;;;;;;;5097831;28;19927;-87
2022/07/31 02:12:45;;;;;;;;;;;;;;;;;;5113491;28;20296;-87
2022/07/31 02:15:11;;;;;;;;;;;;;;;;;;5097537;28;20386;-87
2022/07/31 02:17:37;;;;;;;;;;;;;;;;;;5097627;28;19920;-87
2022/07/31 02:20:04;;;;;;;;;;;;;;;;;;5113365;28;20304;-87
2022/07/31 02:22:29;;;;;;;;;;;;;;;;;;5107513;28;19920;-87
2022/07/31 02:24:55;;;;;;;;;;;;;;;;;;5098277;28;20045;-89
2022/07/31 02:27:20;;;;;;;;;;;;;;;;;;5113002;28;19965;-88
2022/07/31 02:29:45;;;;;;;;;;;;;;;;;;5113338;28;19916;-88
2022/07/31 02:32:11;;;;;;;;;;;;;;;;;;5112738;28;19916;-87
2022/07/31 02:34:36;;;;;;;;;;;;;;;;;;5095883;28;20564;-88
2022/07/31 02:37:01;;;;;;;;;;;;;;;;;;5096939;28;19916;-87
2022/07/31 02:39:27;;;;;;;;;;;;;;;;;;5112465;28;20021;-87
2022/07/31 02:41:52;;;;;;;;;;;;;;;;;;5123463;28;19944;-87
2022/07/31 02:44:17;;;;;;;;;;;;;;;;;;5120502;28;19924;-87
2022/07/31 02:46:43;;;;;;;;;;;;;;;;;;5114132;28;19916;-88
2022/07/31 02:49:09;;;;;;;;;;;;;;;;;;5096956;28;19920;-86
2022/07/31 02:51:34;;;;;;;;;;;;;;;;;;5096422;28;19916;-86
2022/07/31 02:53:59;;;;;;;;;;;;;;;;;;5095513;28;20037;-88
2022/07/31 02:56:25;;;;;;;;;;;;;;;;;;5096982;28;20394;-87
2022/07/31 02:58:50;;;;;;;;;;;;;;;;;;5111768;28;19973;-86
2022/07/31 03:01:15;;;;;;;;;;;;;;;;;;5112593;28;19920;-87
2022/07/31 03:03:41;;;;;;;;;;;;;;;;;;5104724;28;20292;-87
2022/07/31 03:06:06;;;;;;;;;;;;;;;;;;5112692;28;19917;-87
2022/07/31 03:08:31;;;;;;;;;;;;;;;;;;5096142;28;19927;-87
2022/07/31 03:10:57;;;;;;;;;;;;;;;;;;5096700;28;19934;-86
2022/07/31 03:13:23;;;;;;;;;;;;;;;;;;5112529;28;19916;-87
2022/07/31 03:15:48;;;;;;;;;;;;;;;;;;5094974;28;19920;-87
2022/07/31 03:20:57;;;;;;;;;;;;;;;;;;5109345;28;20037;-87
2022/07/31 03:23:23;;;;;;;;;;;;;;;;;;5118829;28;19970;-86
2022/07/31 03:25:49;;;;;;;;;;;;;;;;;;5105175;28;19955;-87
2022/07/31 03:28:15;;;;;;;;;;;;;;;;;;5095066;28;20345;-88
2022/07/31 03:30:41;;;;;;;;;;;;;;;;;;5095852;28;20010;-87
2022/07/31 03:33:06;;;;;;;;;;;;;;;;;;5095802;28;19955;-88
2022/07/31 03:35:32;;;;;;;;;;;;;;;;;;5095923;28;19998;-88
2022/07/31 03:37:58;;;;;;;;;;;;;;;;;;5095890;28;20249;-88
2022/07/31 03:40:23;;;;;;;;;;;;;;;;;;5111757;28;19924;-87
2022/07/31 03:42:49;;;;;;;;;;;;;;;;;;5095530;28;19949;-87
2022/07/31 03:45:14;;;;;;;;;;;;;;;;;;5120864;28;19916;-87
2022/07/31 03:47:39;;;;;;;;;;;;;;;;;;5116977;28;19917;-87
2022/07/31 03:50:05;;;;;;;;;;;;;;;;;;5111813;28;20100;-88
2022/07/31 03:52:30;;;;;;;;;;;;;;;;;;5114565;28;20290;-87
2022/07/31 03:54:56;;;;;;;;;;;;;;;;;;5111453;28;20257;-88
2022/07/31 03:57:21;;;;;;;;;;;;;;;;;;5094762;28;19916;-89
2022/07/31 03:59:47;;;;;;;;;;;;;;;;;;5111231;28;19922;-87
2022/07/31 04:02:12;;;;;;;;;;;;;;;;;;5111343;28;20015;-88
2022/07/31 04:04:38;;;;;;;;;;;;;;;;;;5115951;28;19938;-88
2022/07/31 04:07:03;;;;;;;;;;;;;;;;;;5115280;28;19920;-88
2022/07/31 04:09:29;;;;;;;;;;;;;;;;;;5112633;28;19916;-88
2022/07/31 04:11:57;;;;;;;;;;;;;;;;;;5095507;28;20305;-89
2022/07/31 04:14:23;;;;;;;;;;;;;;;;;;5096233;28;19984;-87
2022/07/31 04:16:48;;;;;;;;;;;;;;;;;;5095194;28;20300;-88
2022/07/31 04:19:13;;;;;;;;;;;;;;;;;;5094885;28;20334;-89
2022/07/31 04:21:38;;;;;;;;;;;;;;;;;;5095305;28;19916;-88
2022/07/31 04:24:04;;;;;;;;;;;;;;;;;;5097593;28;19916;-88
2022/07/31 04:26:29;;;;;;;;;;;;;;;;;;5103760;28;19969;-87
2022/07/31 04:28:55;;;;;;;;;;;;;;;;;;5104621;28;19930;-87
2022/07/31 04:31:20;;;;;;;;;;;;;;;;;;5095242;28;20349;-87
2022/07/31 04:33:45;;;;;;;;;;;;;;;;;;5096207;28;19916;-87
2022/07/31 04:36:11;;;;;;;;;;;;;;;;;;5096542;28;19919;-89
2022/07/31 04:38:36;;;;;;;;;;;;;;;;;;5095069;28;20428;-88
2022/07/31 04:41:01;;;;;;;;;;;;;;;;;;5095298;28;19916;-87
2022/07/31 04:43:26;;;;;;;;;;;;;;;;;;5110740;28;19920;-87
2022/07/31 04:45:52;;;;;;;;;;;;;;;;;;5095653;28;20264;-88
2022/07/31 04:48:17;;;;;;;;;;;;;;;;;;5107893;28;19916;-87
2022/07/31 04:50:42;;;;;;;;;;;;;;;;;;5100177;28;19924;-88
2022/07/31 04:53:08;;;;;;;;;;;;;;;;;;5110560;28;19919;-87
2022/07/31 04:55:34;;;;;;;;;;;;;;;;;;5095075;28;19965;-88
2022/07/31 04:57:59;;;;;;;;;;;;;;;;;;5093415;28;19916;-87
2022/07/31 05:00:25;;;;;;;;;;;;;;;;;;5095075;28;19919;-87
2022/07/31 05:02:50;;;;;;;;;;;;;;;;;;5124404;28;19916;-87
2022/07/31 05:05:17;;;;;;;;;;;;;;;;;;5107738;28;19920;-86
2022/07/31 05:07:43;;;;;;;;;;;;;;;;;;5108331;28;19916;-87
2022/07/31 05:10:08;;;;;;;;;;;;;;;;;;5107377;28;19921;-88
2022/07/31 05:12:34;;;;;;;;;;;;;;;;;;5093643;28;19959;-88
2022/07/31 05:14:59;;;;;;;;;;;;;;;;;;5093625;28;19958;-87
2022/07/31 05:17:25;;;;;;;;;;;;;;;;;;5094561;28;19924;-89
2022/07/31 05:19:50;;;;;;;;;;;;;;;;;;5095256;28;20004;-88
2022/07/31 05:22:15;;;;;;;;;;;;;;;;;;5098209;28;20344;-88
2022/07/31 05:24:41;;;;;;;;;;;;;;;;;;5098556;28;19966;-88
2022/07/31 05:27:07;;;;;;;;;;;;;;;;;;5113994;28;19916;-88
2022/07/31 05:29:32;;;;;;;;;;;;;;;;;;5128498;28;19916;-88
2022/07/31 05:31:57;;;;;;;;;;;;;;;;;;5104032;28;20236;-88
2022/07/31 05:34:23;;;;;;;;;;;;;;;;;;5098553;28;19916;-87
2022/07/31 05:36:49;;;;;;;;;;;;;;;;;;5098433;28;20006;-86
2022/07/31 05:39:16;;;;;;;;;;;;;;;;;;5098467;28;20345;-86
2022/07/31 05:41:41;;;;;;;;;;;;;;;;;;5098252;28;20648;-85
2022/07/31 05:44:07;;;;;;;;;;;;;;;;;;5096764;28;19921;-88
2022/07/31 05:46:32;;;;;;;;;;;;;;;;;;5098418;28;20314;-87
2022/07/31 05:48:57;;;;;;;;;;;;;;;;;;5099167;28;19923;-87
2022/07/31 05:51:23;;;;;;;;;;;;;;;;;;5111589;28;19920;-87
2022/07/31 05:53:48;;;;;;;;;;;;;;;;;;5115906;28;19924;-88
2022/07/31 05:56:13;;;;;;;;;;;;;;;;;;5113878;28;19973;-87
2022/07/31 05:58:38;;;;;;;;;;;;;;;;;;5113614;28;19966;-88
2022/07/31 06:01:04;;;;;;;;;;;;;;;;;;5097873;28;20314;-87
2022/07/31 06:03:34;;;;;;;;;;;;;;;;;;5097958;28;19947;-88
2022/07/31 06:06:00;;;;;;;;;;;;;;;;;;5097759;28;19916;-89
2022/07/31 06:08:25;;;;;;;;;;;;;;;;;;5113169;28;19916;-87
2022/07/31 06:10:50;;;;;;;;;;;;;;;;;;5103614;28;19907;-87
2022/07/31 06:13:16;;;;;;;;;;;;;;;;;;5109886;28;19930;-88
2022/07/31 06:15:41;;;;;;;;;;;;;;;;;;5098061;28;19938;-87
2022/07/31 06:18:06;;;;;;;;;;;;;;;;;;5097554;28;20004;-88
2022/07/31 06:20:32;;;;;;;;;;;;;;;;;;5097360;28;20314;-88
2022/07/31 06:22:57;;;;;;;;;;;;;;;;;;5097557;28;19916;-89
2022/07/31 06:25:22;;;;;;;;;;;;;;;;;;5097975;28;20380;-86
2022/07/31 06:27:48;;;;;;;;;;;;;;;;;;5113060;28;20246;-85
2022/07/31 06:30:13;;;;;;;;;;;;;;;;;;5097506;28;19967;-87
2022/07/31 06:32:38;;;;;;;;;;;;;;;;;;5107247;28;19920;-85
2022/07/31 06:35:04;;;;;;;;;;;;;;;;;;5100597;28;19916;-86
2022/07/31 06:37:29;;;;;;;;;;;;;;;;;;5113258;28;19916;-86
2022/07/31 06:39:55;;;;;;;;;;;;;;;;;;5097045;28;19939;-86
2022/07/31 06:42:43;;;;;;;;;;;;;;;;;;5113108;28;19931;-87
2022/07/31 06:45:08;;;;;;;;;;;;;;;;;;5056737;28;19924;-87
2022/07/31 06:47:34;;;;;;;;;;;;;;;;;;5056661;28;20386;-87
2022/07/31 06:49:59;;;;;;;;;;;;;;;;;;5056403;28;19924;-89
2022/07/31 06:52:24;;;;;;;;;;;;;;;;;;5062149;28;19920;-88
2022/07/31 06:54:49;;;;;;;;;;;;;;;;;;5078452;28;19921;-87
2022/07/31 06:57:15;;;;;;;;;;;;;;;;;;5056670;28;19967;-88
2022/07/31 06:59:40;;;;;;;;;;;;;;;;;;5071806;28;20004;-86
2022/07/31 07:02:06;;;;;;;;;;;;;;;;;;5056577;28;19916;-86
2022/07/31 07:04:31;;;;;;;;;;;;;;;;;;5056401;28;19917;-85
2022/07/31 07:06:56;;;;;;;;;;;;;;;;;;5056691;28;19940;-87
2022/07/31 07:09:21;;;;;;;;;;;;;;;;;;5071881;28;20035;-88
2022/07/31 07:11:47;;;;;;;;;;;;;;;;;;5071945;28;20283;-87
2022/07/31 07:14:13;;;;;;;;;;;;;;;;;;5085819;28;19921;-86
2022/07/31 07:16:38;;;;;;;;;;;;;;;;;;5057509;28;20401;-88
2022/07/31 07:19:03;;;;;;;;;;;;;;;;;;5054707;28;19921;-89
2022/07/31 07:21:29;;;;;;;;;;;;;;;;;;5056460;28;20254;-87
2022/07/31 07:23:54;;;;;;;;;;;;;;;;;;5056010;28;19940;-88
2022/07/31 07:26:20;;;;;;;;;;;;;;;;;;5056049;28;20027;-88
2022/07/31 07:28:45;;;;;;;;;;;;;;;;;;5055954;28;19920;-89
2022/07/31 07:31:10;;;;;;;;;;;;;;;;;;5054591;28;19916;-88
2022/07/31 07:33:36;;;;;;;;;;;;;;;;;;5058322;28;20006;-88
2022/07/31 07:36:01;;;;;;;;;;;;;;;;;;5063115;28;19978;-86
2022/07/31 07:38:26;;;;;;;;;;;;;;;;;;5055928;28;19917;-89
2022/07/31 07:40:52;;;;;;;;;;;;;;;;;;5055273;28;20250;-87
2022/07/31 07:43:17;;;;;;;;;;;;;;;;;;5081975;28;19920;-88
2022/07/31 07:45:43;;;;;;;;;;;;;;;;;;5111237;28;19916;-88
2022/07/31 07:48:08;;;;;;;;;;;;;;;;;;5111391;28;19917;-88
2022/07/31 07:50:33;;;;;;;;;;;;;;;;;;5111591;28;19922;-90
2022/07/31 07:52:59;;;;;;;;;;;;;;;;;;5095671;28;19912;-88
2022/07/31 07:55:25;;;;;;;;;;;;;;;;;;5103196;28;19924;-87
2022/07/31 07:57:50;;;;;;;;;;;;;;;;;;5117434;28;20305;-88
2022/07/31 08:00:15;;;;;;;;;;;;;;;;;;5095659;28;20314;-88
2022/07/31 08:02:43;;;;;;;;;;;;;;;;;;5095477;28;20007;-89
2022/07/31 08:05:08;;;;;;;;;;;;;;;;;;5095406;28;19912;-91
2022/07/31 08:07:34;;;;;;;;;;;;;;;;;;5094215;28;19973;-90
2022/07/31 08:10:03;;;;;;;;;;;;;;;;;;5111092;28;19916;-87
2022/07/31 08:12:28;;;;;;;;;;;;;;;;;;5095790;28;20249;-87
2022/07/31 08:14:53;;;;;;;;;;;;;;;;;;5094422;28;19916;-89
2022/07/31 08:17:19;;;;;;;;;;;;;;;;;;5121313;28;19920;-86
2022/07/31 08:19:44;;;;;;;;;;;;;;;;;;5099489;28;19922;-88
2022/07/31 08:22:09;;;;;;;;;;;;;;;;;;5111378;28;20265;-86
2022/07/31 08:24:35;;;;;;;;;;;;;;;;;;5095373;28;19912;-86
2022/07/31 08:29:47;;;;;;;;;;;;;;;;;;5108455;28;19951;-84
2022/07/31 08:32:12;;;;;;;;;;;;;;;;;;5110377;28;19911;-86
2022/07/31 08:34:37;;;;;;;;;;;;;;;;;;5095291;28;20253;-87
2022/07/31 08:37:05;;;;;;;;;;;;;;;;;;5096466;28;19912;-85
2022/07/31 08:39:30;;;;;;;;;;;;;;;;;;5105008;28;19924;-88
2022/07/31 08:41:56;;;;;;;;;;;;;;;;;;5110940;28;19912;-88
2022/07/31 08:44:21;;;;;;;;;;;;;;;;;;5094764;28;20386;-89
2022/07/31 08:46:46;;;;;;;;;;;;;;;;;;5095240;28;20348;-90
2022/07/31 08:49:12;;;;;;;;;;;;;;;;;;5094980;28;19916;-88
2022/07/31 08:51:38;;;;;;;;;;;;;;;;;;5095286;28;20191;-89
2022/07/31 08:54:07;;;;;;;;;;;;;;;;;;5110775;28;19939;-87
2022/07/31 08:56:32;;;;;;;;;;;;;;;;;;5112765;28;19939;-89
2022/07/31 08:58:58;;;;;;;;;;;;;;;;;;5102221;28;20337;-89
2022/07/31 09:01:24;;;;;;;;;;;;;;;;;;5103719;28;19998;-90
2022/07/31 09:03:49;;;;;;;;;;;;;;;;;;5114553;28;19963;-88
2022/07/31 09:06:15;;;;;;;;;;;;;;;;;;5098699;28;19916;-91
2022/07/31 09:08:40;;;;;;;;;;;;;;;;;;5097292;28;19916;-89
2022/07/31 09:11:09;;;;;;;;;;;;;;;;;;5098531;28;19923;-89
2022/07/31 09:13:34;;;;;;;;;;;;;;;;;;5098631;28;19926;-88
2022/07/31 09:16:00;;;;;;;;;;;;;;;;;;5097097;28;20379;-90
2022/07/31 09:18:25;;;;;;;;;;;;;;;;;;5098841;28;19916;-92
2022/07/31 09:20:55;;;;;;;;;;;;;;;;;;5106229;28;19938;-87
2022/07/31 09:23:21;;;;;;;;;;;;;;;;;;5118026;28;19916;-87
2022/07/31 09:25:52;;;;;;;;;;;;;;;;;;5099127;28;20340;-85
2022/07/31 09:28:17;;;;;;;;;;;;;;;;;;5098609;28;20310;-86
2022/07/31 09:30:51;;;;;;;;;;;;;;;;;;5103679;28;19938;-85
2022/07/31 09:33:17;;;;;;;;;;;;;;;;;;5125210;28;19916;-87
2022/07/31 09:35:49;;;;;;;;;;;;;;;;;;5105460;28;19916;-88
2022/07/31 09:38:14;;;;;;;;;;;;;;;;;;5117217;28;20006;-87
2022/07/31 09:40:42;;;;;;;;;;;;;;;;;;5115424;28;20320;-86
2022/07/31 09:43:34;;;;;;;;;;;;;;;;;;5126167;28;19920;-89
2022/07/31 09:45:59;;;;;;;;;;;;;;;;;;5095189;28;19916;-88
2022/07/31 09:48:24;;;;;;;;;;;;;;;;;;5097968;28;19939;-86
2022/07/31 09:50:56;;;;;;;;;;;;;;;;;;5114072;28;19916;-88
2022/07/31 09:53:22;;;;;;;;;;;;;;;;;;5113824;28;19916;-86
2022/07/31 09:55:51;;;;;;;;;;;;;;;;;;5096775;28;19923;-87
2022/07/31 09:58:17;;;;;;;;;;;;;;;;;;5098710;28;20298;-86
2022/07/31 10:00:42;;;;;;;;;;;;;;;;;;5113688;28;19966;-88
2022/07/31 10:03:07;;;;;;;;;;;;;;;;;;5123013;28;20395;-87
2022/07/31 10:05:33;;;;;;;;;;;;;;;;;;5119447;28;20345;-88
2022/07/31 10:07:59;;;;;;;;;;;;;;;;;;5113734;28;19916;-87
2022/07/31 10:10:24;;;;;;;;;;;;;;;;;;5113734;28;19923;-87
2022/07/31 10:12:50;;;;;;;;;;;;;;;;;;5097660;28;19947;-88
2022/07/31 10:15:15;;;;;;;;;;;;;;;;;;5113373;28;20242;-87
2022/07/31 10:17:43;;;;;;;;;;;;;;;;;;5113575;28;19923;-86
2022/07/31 10:20:10;;;;;;;;;;;;;;;;;;5097514;28;19995;-88
2022/07/31 10:22:42;;;;;;;;;;;;;;;;;;5113294;28;19932;-87
2022/07/31 10:25:08;;;;;;;;;;;;;;;;;;5126106;28;19952;-89
2022/07/31 10:27:33;;;;;;;;;;;;;;;;;;5100079;28;19973;-87
2022/07/31 10:29:59;;;;;;;;;;;;;;;;;;5113171;28;19916;-90
2022/07/31 10:32:24;;;;;;;;;;;;;;;;;;5096285;28;19955;-88
2022/07/31 10:34:49;;;;;;;;;;;;;;;;;;5097115;28;20292;-88
2022/07/31 10:37:19;;;;;;;;;;;;;;;;;;5113149;28;19957;-89
2022/07/31 10:39:48;;;;;;;;;;;;;;;;;;5097269;28;19920;-89
2022/07/31 10:42:16;;;;;;;;;;;;;;;;;;5112888;28;20007;-88
2022/07/31 10:44:46;;;;;;;;;;;;;;;;;;5102106;28;19908;-87
2022/07/31 10:47:12;;;;;;;;;;;;;;;;;;5117124;28;20007;-88
2022/07/31 10:49:44;;;;;;;;;;;;;;;;;;5097204;28;19927;-87
2022/07/31 10:52:10;;;;;;;;;;;;;;;;;;5097118;28;19990;-86
2022/07/31 10:54:42;;;;;;;;;;;;;;;;;;5111483;28;20326;-89
2022/07/31 10:57:07;;;;;;;;;;;;;;;;;;5096628;28;20310;-89
2022/07/31 10:59:32;;;;;;;;;;;;;;;;;;5096821;28;19923;-88
2022/07/31 11:01:58;;;;;;;;;;;;;;;;;;5097362;28;19923;-89
2022/07/31 11:04:27;;;;;;;;;;;;;;;;;;5112698;28;20345;-88
2022/07/31 11:06:53;;;;;;;;;;;;;;;;;;5109504;28;19920;-89
2022/07/31 11:09:22;;;;;;;;;;;;;;;;;;5100095;28;19981;-90
2022/07/31 11:11:47;;;;;;;;;;;;;;;;;;5121199;28;19900;-86
2022/07/31 11:14:13;;;;;;;;;;;;;;;;;;5114579;28;19969;-85
2022/07/31 11:16:48;;;;;;;;;;;;;;;;;;5115433;28;19916;-86
2022/07/31 11:19:13;;;;;;;;;;;;;;;;;;5115160;28;19916;-88
2022/07/31 11:21:39;;;;;;;;;;;;;;;;;;5112451;28;19931;-86
2022/07/31 11:24:14;;;;;;;;;;;;;;;;;;5095916;28;19973;-86
2022/07/31 11:26:53;;;;;;;;;;;;;;;;;;5102106;28;19916;-86
2022/07/31 11:29:35;;;;;;;;;;;;;;;;;;5101771;28;19916;-85
2022/07/31 11:32:03;;;;;;;;;;;;;;;;;;5096447;28;19916;-87
2022/07/31 11:34:28;;;;;;;;;;;;;;;;;;5096074;28;19922;-87
2022/07/31 11:36:54;;;;;;;;;;;;;;;;;;5096169;28;19916;-86
2022/07/31 11:39:21;;;;;;;;;;;;;;;;;;5095895;28;20322;-89
2022/07/31 11:41:47;;;;;;;;;;;;;;;;;;5095768;28;19916;-88
2022/07/31 11:44:12;;;;;;;;;;;;;;;;;;5111278;28;20006;-86
2022/07/31 11:46:37;;;;;;;;;;;;;;;;;;5111234;28;20028;-87
2022/07/31 11:49:04;;;;;;;;;;;;;;;;;;5109125;28;19916;-87
2022/07/31 11:51:29;;;;;;;;;;;;;;;;;;5100475;28;19923;-87
2022/07/31 11:53:55;;;;;;;;;;;;;;;;;;5111496;28;20222;-86
2022/07/31 11:56:21;;;;;;;;;;;;;;;;;;5111475;28;19916;-88
2022/07/31 11:58:47;;;;;;;;;;;;;;;;;;5095764;28;19916;-87
2022/07/31 12:01:12;;;;;;;;;;;;;;;;;;5095114;28;20326;-87
2022/07/31 12:03:38;;;;;;;;;;;;;;;;;;5111071;28;19916;-88
2022/07/31 12:06:06;;;;;;;;;;;;;;;;;;5094672;28;19916;-86
2022/07/31 12:08:33;;;;;;;;;;;;;;;;;;5114456;28;19958;-87
2022/07/31 12:10:59;;;;;;;;;;;;;;;;;;5118595;28;19977;-88
2022/07/31 12:13:24;;;;;;;;;;;;;;;;;;5095623;28;19911;-86
2022/07/31 12:15:53;;;;;;;;;;;;;;;;;;5111266;28;19956;-85
2022/07/31 12:18:18;;;;;;;;;;;;;;;;;;5095674;28;20332;-87
2022/07/31 12:20:50;;;;;;;;;;;;;;;;;;5094506;28;19916;-88
2022/07/31 12:23:15;;;;;;;;;;;;;;;;;;5111084;28;20022;-86
2022/07/31 12:25:42;;;;;;;;;;;;;;;;;;5095232;28;20008;-88
2022/07/31 12:28:07;;;;;;;;;;;;;;;;;;5095201;28;19923;-90
2022/07/31 12:30:33;;;;;;;;;;;;;;;;;;5101338;28;19916;-86
2022/07/31 12:33:07;;;;;;;;;;;;;;;;;;5100839;28;20269;-87
2022/07/31 12:35:36;;;;;;;;;;;;;;;;;;5095337;28;19939;-90
2022/07/31 12:38:01;;;;;;;;;;;;;;;;;;5095073;28;20306;-88
2022/07/31 12:40:26;;;;;;;;;;;;;;;;;;5095632;28;19973;-87
2022/07/31 12:42:52;;;;;;;;;;;;;;;;;;5110954;28;19945;-89
2022/07/31 12:45:27;;;;;;;;;;;;;;;;;;5094803;28;19939;-86
2022/07/31 12:47:52;;;;;;;;;;;;;;;;;;5110457;28;19956;-86
2022/07/31 12:50:18;;;;;;;;;;;;;;;;;;5112022;28;19924;-87
2022/07/31 12:52:44;;;;;;;;;;;;;;;;;;5099710;28;19916;-88
2022/07/31 12:55:12;;;;;;;;;;;;;;;;;;5094732;28;19916;-88
2022/07/31 12:57:37;;;;;;;;;;;;;;;;;;5094942;28;20338;-88
2022/07/31 13:00:03;;;;;;;;;;;;;;;;;;5095053;28;20011;-89
2022/07/31 13:02:28;;;;;;;;;;;;;;;;;;5094650;28;19967;-89
2022/07/31 13:04:53;;;;;;;;;;;;;;;;;;5095104;28;20031;-87
2022/07/31 13:07:19;;;;;;;;;;;;;;;;;;5094951;28;20206;-87
2022/07/31 13:09:44;;;;;;;;;;;;;;;;;;5097496;28;19915;-86
2022/07/31 13:12:09;;;;;;;;;;;;;;;;;;5101900;28;20254;-86
2022/07/31 13:14:35;;;;;;;;;;;;;;;;;;5093226;28;20342;-90
2022/07/31 13:17:00;;;;;;;;;;;;;;;;;;5094613;28;19916;-86
2022/07/31 13:19:26;;;;;;;;;;;;;;;;;;5110472;28;19916;-88
2022/07/31 13:21:51;;;;;;;;;;;;;;;;;;5110487;28;19992;-88
2022/07/31 13:24:17;;;;;;;;;;;;;;;;;;5094973;28;20318;-88
2022/07/31 13:26:44;;;;;;;;;;;;;;;;;;5110337;28;19916;-89
2022/07/31 13:29:09;;;;;;;;;;;;;;;;;;5094335;28;19916;-90
2022/07/31 13:31:34;;;;;;;;;;;;;;;;;;5119520;28;19927;-88
2022/07/31 13:34:00;;;;;;;;;;;;;;;;;;5098063;28;19973;-88
2022/07/31 13:36:25;;;;;;;;;;;;;;;;;;5110365;28;19939;-88
2022/07/31 13:38:50;;;;;;;;;;;;;;;;;;5094200;28;20425;-90
2022/07/31 13:41:27;;;;;;;;;;;;;;;;;;5110280;28;19923;-91
2022/07/31 13:43:56;;;;;;;;;;;;;;;;;;5112445;28;19920;-88
2022/07/31 13:46:21;;;;;;;;;;;;;;;;;;5098383;28;19916;-89
2022/07/31 13:48:46;;;;;;;;;;;;;;;;;;5097849;28;19923;-88
2022/07/31 13:51:12;;;;;;;;;;;;;;;;;;5114263;28;19973;-87
2022/07/31 13:53:37;;;;;;;;;;;;;;;;;;5104813;28;19916;-89
2022/07/31 13:56:03;;;;;;;;;;;;;;;;;;5098887;28;20423;-87
2022/07/31 13:58:28;;;;;;;;;;;;;;;;;;5097804;28;19921;-88
2022/07/31 14:00:55;;;;;;;;;;;;;;;;;;5113057;28;20574;-87
2022/07/31 14:03:21;;;;;;;;;;;;;;;;;;5097833;28;20263;-88
2022/07/31 14:05:47;;;;;;;;;;;;;;;;;;5095945;28;19916;-89
2022/07/31 14:08:12;;;;;;;;;;;;;;;;;;5097593;28;19916;-88
2022/07/31 14:10:37;;;;;;;;;;;;;;;;;;5097812;28;19916;-89
2022/07/31 14:13:02;;;;;;;;;;;;;;;;;;5105296;28;19963;-89
2022/07/31 14:15:28;;;;;;;;;;;;;;;;;;5098030;28;20008;-91
2022/07/31 14:17:53;;;;;;;;;;;;;;;;;;5097401;28;20238;-88
2022/07/31 14:20:18;;;;;;;;;;;;;;;;;;5097403;28;20403;-88
2022/07/31 14:22:44;;;;;;;;;;;;;;;;;;5112836;28;19916;-90
2022/07/31 14:25:09;;;;;;;;;;;;;;;;;;5097443;28;19916;-91
2022/07/31 14:27:34;;;;;;;;;;;;;;;;;;5096918;28;20325;-87
2022/07/31 14:30:00;;;;;;;;;;;;;;;;;;5095535;28;19916;-86
2022/07/31 14:32:26;;;;;;;;;;;;;;;;;;5096891;28;19924;-86
2022/07/31 14:34:51;;;;;;;;;;;;;;;;;;5122662;28;19939;-92
2022/07/31 14:37:16;;;;;;;;;;;;;;;;;;5097246;28;19916;-91
2022/07/31 14:39:42;;;;;;;;;;;;;;;;;;5095884;28;19922;-89
2022/07/31 14:42:07;;;;;;;;;;;;;;;;;;5096587;28;19916;-91
2022/07/31 14:44:32;;;;;;;;;;;;;;;;;;5096915;28;19927;-89
2022/07/31 14:46:58;;;;;;;;;;;;;;;;;;5097142;28;19931;-88
2022/07/31 14:49:23;;;;;;;;;;;;;;;;;;5096928;28;20323;-87
2022/07/31 14:51:48;;;;;;;;;;;;;;;;;;5096966;28;20403;-87
2022/07/31 14:54:14;;;;;;;;;;;;;;;;;;5099491;28;19908;-86
2022/07/31 14:56:39;;;;;;;;;;;;;;;;;;5101842;28;19916;-88
2022/07/31 14:59:04;;;;;;;;;;;;;;;;;;5096553;28;19916;-90
2022/07/31 15:01:29;;;;;;;;;;;;;;;;;;5096276;28;19916;-89
2022/07/31 15:03:55;;;;;;;;;;;;;;;;;;5095009;28;19974;-88
2022/07/31 15:06:21;;;;;;;;;;;;;;;;;;5111901;28;19939;-90
2022/07/31 15:08:47;;;;;;;;;;;;;;;;;;5096555;28;20022;-89
2022/07/31 15:11:12;;;;;;;;;;;;;;;;;;5095978;28;19999;-88
2022/07/31 15:13:37;;;;;;;;;;;;;;;;;;5112955;28;19916;-88
2022/07/31 15:16:03;;;;;;;;;;;;;;;;;;5102899;28;19909;-88
2022/07/31 15:18:29;;;;;;;;;;;;;;;;;;5103493;28;19920;-86
2022/07/31 15:20:54;;;;;;;;;;;;;;;;;;5112234;28;19923;-89
2022/07/31 15:23:20;;;;;;;;;;;;;;;;;;5096113;28;19916;-88
2022/07/31 15:25:45;;;;;;;;;;;;;;;;;;5094417;28;19959;-90
2022/07/31 15:28:11;;;;;;;;;;;;;;;;;;5095884;28;19916;-87
2022/07/31 15:30:36;;;;;;;;;;;;;;;;;;5095967;28;19927;-88
2022/07/31 15:33:01;;;;;;;;;;;;;;;;;;5095638;28;19923;-88
2022/07/31 15:35:27;;;;;;;;;;;;;;;;;;5096051;28;19916;-89
2022/07/31 15:37:52;;;;;;;;;;;;;;;;;;5106558;28;20342;-88
2022/07/31 15:40:20;;;;;;;;;;;;;;;;;;5115426;28;19916;-89
2022/07/31 15:42:45;;;;;;;;;;;;;;;;;;5095599;28;19962;-87
2022/07/31 15:45:12;;;;;;;;;;;;;;;;;;5095377;28;19959;-89
2022/07/31 15:47:38;;;;;;;;;;;;;;;;;;5095682;28;19927;-88
2022/07/31 15:50:03;;;;;;;;;;;;;;;;;;5111268;28;20250;-89
2022/07/31 15:52:29;;;;;;;;;;;;;;;;;;5111110;28;19996;-86
2022/07/31 15:54:54;;;;;;;;;;;;;;;;;;5095273;28;20245;-87
2022/07/31 15:57:19;;;;;;;;;;;;;;;;;;5097991;28;19916;-87
2022/07/31 15:59:45;;;;;;;;;;;;;;;;;;5104216;28;19923;-87
2022/07/31 16:02:10;;;;;;;;;;;;;;;;;;5095356;28;20321;-88
2022/07/31 16:04:37;;;;;;;;;;;;;;;;;;5094981;28;19950;-89
2022/07/31 16:07:02;;;;;;;;;;;;;;;;;;5094125;28;20286;-88
2022/07/31 16:09:27;;;;;;;;;;;;;;;;;;5094591;28;19999;-89
2022/07/31 16:11:53;;;;;;;;;;;;;;;;;;5095117;28;20278;-88
2022/07/31 16:14:18;;;;;;;;;;;;;;;;;;5095241;28;19916;-89
2022/07/31 16:16:43;;;;;;;;;;;;;;;;;;5095163;28;19916;-89
2022/07/31 16:19:09;;;;;;;;;;;;;;;;;;5103036;28;19916;-88
2022/07/31 16:21:34;;;;;;;;;;;;;;;;;;5094686;28;19924;-88
2022/07/31 16:23:59;;;;;;;;;;;;;;;;;;5110809;28;19916;-90
2022/07/31 16:26:24;;;;;;;;;;;;;;;;;;5094633;28;19939;-92
2022/07/31 16:28:50;;;;;;;;;;;;;;;;;;5095058;28;20308;-89
2022/07/31 16:31:15;;;;;;;;;;;;;;;;;;5094966;28;20253;-87
2022/07/31 16:33:41;;;;;;;;;;;;;;;;;;5094903;28;20230;-88
2022/07/31 16:36:06;;;;;;;;;;;;;;;;;;5095392;28;19958;-90
2022/07/31 16:38:31;;;;;;;;;;;;;;;;;;5095593;28;20318;-88
2022/07/31 16:40:57;;;;;;;;;;;;;;;;;;5119402;28;20234;-92
2022/07/31 16:43:22;;;;;;;;;;;;;;;;;;5095149;28;19976;-90